Flugplatz Anspach/Taunus

Für EDFA sind keine METAR/TAF Berichte vorhanden.
Es werden die Flugwettermeldungen vom Flugplatz Frankfurt am Main International in 28 km Entfernung angezeigt.

Bericht für EDDF

vom 28.02. um 02:20 UTC

Wind 10 kt aus 280°

Sichtweite 10 km oder mehr

gering bewölkt in 1400 ft

aufgebrochene Bewölkung in 2300 ft

Temperatur 3.0°C

Taupunkt 0.0°C

Luftfeuchtigkeit 81%

Luftdruck 1013 hPa

keine wesentliche Wetteränderung innerhalb den nächsten 2 Stunden zu erwarten

EDDF 280220Z 28010KT 9999 FEW014 BKN023 03/M00 Q1013 R07L/69//95 R07C/29//95 R07R/29//95 R18/29//95 NOSIG

Prognose für EDDF

vom 27.02. um 00:00 UTC

Zwischen 00:00 UTC und 00:00 UTC

Wind 8 kt aus 240°

Sichtweite 10 km oder mehr

aufgelockert bewölkt in 2000 ft


Zwischen 00:00 UTC und 00:00 UTC zeitweise

aufgebrochene Bewölkung in 2000 ft


Zwischen 00:00 und 00:00 UTC übergehend zu

Wind 7 kt aus 170°

Sichtweite 10 km oder mehr

aufgelockert bewölkt in 2000 ft


Zwischen 00:00 und 00:00 UTC übergehend zu

Wind 7 kt aus 170°

Sichtweite 10 km oder mehr

aufgebrochene Bewölkung in 2000 ft


Zwischen 00:00 UTC und 00:00 UTC zeitweise

Regen

bedeckt in 1200 ft

TAF EDDF 272300Z 2800/2906 24008KT 9999 SCT020 TEMPO 2800/2803 BKN020 BECMG 2816/2818 17007KT BECMG 2820/2822 BKN020 TEMPO 2822/2904 RA OVC012
Impressum